Hauptseite
METAR-TAF:

METAR-TAF

Flughäfen :

Flughafen Albert-Picardie

Albert, Frankreich

Breite: 49-58-21N, Länge: 002-41-29E, Höhe: 111 m

Beobachtung

Neuester Wetterbericht von vor 41 Minuten, um 18:00 UTC
Wind 6 kt aus Süd
Temperatur 9°C
Luftfeuchtigkeit 93%
Luftdruck 1017 hPa
Sichtweite 10 km oder mehr
keine Wolken unter 1500 m und keine Kumulonimbus oder Gewitterwolken

METAR: LFAQ 121800Z AUTO 18006KT CAVOK 09/08 Q1017 NOSIG

Zeit: 19:41 (18:41 UTC)

Prognose

Neuester Wetterbericht von vor 4 Stunden und 41 Minuten, um 14:00 UTC
Gültige Prognose vom 12 um 15 UTC bis 12 um 24 UTC
Wind 9 kt aus Süd/Südwest
Sichtweite 10 km oder mehr
Aufgelockert bewölkt in der Höhe von 1500 ft

TAF: LFAQ 121400Z 1215/1224 20009KT 9999 SCT015

Wetterbeobachtungen und Prognosen von mehr als 4000 Flughäfen (METAR und TAF Bericht).

Die verfügbaren Stationen werden durch gelbe und rote Markierungen auf der Karte dargestellt.

Führen Sie die Maus auf sie, um den Namen der Station zu sehen.

Darauf klicken, um die Beobachtung von Wetterbeobachtungen und Prognosen zu sehen.

Um die Karte zu ändern : klicken Sie auf den grünen Tasten mit einem schwarzen Kreuz Zum Vergrößern, auf den grünen Button mit einem Gedankenstrich zu verkleinern, oder auf die grünen Pfeile für benachbarte Karten.


METAR-TAF: